Time;durP1;ratioP1;P1;durP2;ratioP2;P2;SDS_P1;SDS_P2;PMS_P1;PMS_P2;Temp;Humidity;BMP_temperature;BMP_pressure;BME280_temperature;BME280_humidity;BME280_pressure;Samples;Min_cycle;Max_cycle;Signal;HPM_P1;HPM_P2
2023/01/31 00:00:00;;;;;;;2.2;2.2;;;;;;;3.1;100.0;102230;;;;
2023/01/31 00:01:05;;;;;;;2.8;2.7;;;;;;;3.0;100.0;102240;;;;
2023/01/31 00:02:00;;;;;;;2.8;2.7;;;;;;;3.0;100.0;102240;;;;
2023/01/31 00:03:00;;;;;;;2.8;2.7;;;;;;;3.0;100.0;102230;;;;
2023/01/31 00:04:01;;;;;;;2.8;2.7;;;;;;;3.0;100.0;102230;;;;
2023/01/31 00:05:01;;;;;;;2.8;2.7;;;;;;;3.0;100.0;102230;;;;
2023/01/31 00:06:10;;;;;;;2.8;2.7;;;;;;;3.0;100.0;102230;;;;
2023/01/31 00:07:00;;;;;;;2.8;2.7;;;;;;;3.0;100.0;102230;;;;
2023/01/31 00:08:00;;;;;;;2.8;2.7;;;;;;;3.0;100.0;102230;;;;
2023/01/31 00:09:01;;;;;;;2.8;2.7;;;;;;;2.9;100.0;102230;;;;
2023/01/31 00:10:00;;;;;;;2.8;2.7;;;;;;;2.9;100.0;102230;;;;
2023/01/31 00:11:00;;;;;;;2.8;2.7;;;;;;;2.9;100.0;102230;;;;
2023/01/31 00:12:00;;;;;;;2.8;2.7;;;;;;;2.9;100.0;102230;;;;
2023/01/31 00:13:00;;;;;;;2.8;2.7;;;;;;;2.8;100.0;102240;;;;
2023/01/31 00:14:03;;;;;;;2.8;2.7;;;;;;;2.8;100.0;102240;;;;
2023/01/31 00:15:00;;;;;;;2.8;2.7;;;;;;;2.9;100.0;102250;;;;
2023/01/31 00:16:00;;;;;;;2.8;2.7;;;;;;;2.9;100.0;102250;;;;
2023/01/31 00:17:00;;;;;;;2.8;2.7;;;;;;;2.8;100.0;102250;;;;
2023/01/31 00:18:00;;;;;;;2.8;2.7;;;;;;;2.8;100.0;102250;;;;
2023/01/31 00:19:01;;;;;;;2.8;2.7;;;;;;;2.8;100.0;102250;;;;
2023/01/31 00:20:00;;;;;;;2.8;2.7;;;;;;;2.8;100.0;102250;;;;
2023/01/31 00:21:10;;;;;;;2.5;2.5;;;;;;;2.9;100.0;102250;;;;
2023/01/31 00:22:00;;;;;;;2.5;2.5;;;;;;;2.9;100.0;102250;;;;
2023/01/31 00:23:00;;;;;;;2.5;2.5;;;;;;;2.9;100.0;102250;;;;
2023/01/31 00:24:00;;;;;;;2.5;2.5;;;;;;;2.9;100.0;102250;;;;
2023/01/31 00:25:00;;;;;;;2.5;2.5;;;;;;;2.8;100.0;102260;;;;
2023/01/31 00:26:08;;;;;;;2.5;2.5;;;;;;;2.8;100.0;102260;;;;
2023/01/31 00:27:00;;;;;;;2.5;2.5;;;;;;;2.8;100.0;102250;;;;
2023/01/31 00:28:00;;;;;;;2.5;2.5;;;;;;;2.8;100.0;102250;;;;
2023/01/31 00:29:01;;;;;;;2.5;2.5;;;;;;;2.8;100.0;102250;;;;
2023/01/31 00:30:00;;;;;;;2.5;2.5;;;;;;;2.8;100.0;102250;;;;
2023/01/31 00:31:00;;;;;;;2.5;2.5;;;;;;;2.8;100.0;102250;;;;
2023/01/31 00:32:00;;;;;;;2.5;2.5;;;;;;;2.8;100.0;102250;;;;
2023/01/31 00:33:00;;;;;;;2.5;2.5;;;;;;;2.7;100.0;102250;;;;
2023/01/31 00:34:01;;;;;;;2.5;2.5;;;;;;;2.7;100.0;102250;;;;
2023/01/31 00:35:00;;;;;;;2.5;2.5;;;;;;;2.7;100.0;102260;;;;
2023/01/31 00:36:02;;;;;;;2.5;2.5;;;;;;;2.7;100.0;102260;;;;
2023/01/31 00:37:00;;;;;;;2.5;2.5;;;;;;;2.7;100.0;102260;;;;
2023/01/31 00:38:00;;;;;;;2.5;2.5;;;;;;;2.7;100.0;102260;;;;
2023/01/31 00:39:02;;;;;;;2.5;2.5;;;;;;;2.6;100.0;102260;;;;
2023/01/31 00:40:00;;;;;;;2.5;2.5;;;;;;;2.6;100.0;102260;;;;
2023/01/31 00:41:01;;;;;;;2.9;2.8;;;;;;;2.7;100.0;102260;;;;
2023/01/31 00:42:00;;;;;;;2.9;2.8;;;;;;;2.7;100.0;102260;;;;
2023/01/31 00:43:00;;;;;;;2.9;2.8;;;;;;;2.6;100.0;102250;;;;
2023/01/31 00:44:01;;;;;;;2.9;2.8;;;;;;;2.6;100.0;102250;;;;
2023/01/31 00:45:00;;;;;;;2.9;2.8;;;;;;;2.7;100.0;102250;;;;
2023/01/31 00:46:00;;;;;;;2.9;2.8;;;;;;;2.7;100.0;102250;;;;
2023/01/31 00:47:00;;;;;;;2.9;2.8;;;;;;;2.6;100.0;102240;;;;
2023/01/31 00:48:00;;;;;;;2.9;2.8;;;;;;;2.6;100.0;102240;;;;
2023/01/31 00:49:01;;;;;;;2.9;2.8;;;;;;;2.6;100.0;102240;;;;
2023/01/31 00:50:00;;;;;;;2.9;2.8;;;;;;;2.6;100.0;102240;;;;
2023/01/31 00:51:00;;;;;;;2.9;2.8;;;;;;;2.5;100.0;102230;;;;
2023/01/31 00:52:00;;;;;;;2.9;2.8;;;;;;;2.5;100.0;102230;;;;
2023/01/31 00:53:01;;;;;;;2.9;2.8;;;;;;;2.5;100.0;102240;;;;
2023/01/31 00:54:00;;;;;;;2.9;2.8;;;;;;;2.5;100.0;102240;;;;
2023/01/31 00:55:00;;;;;;;2.9;2.8;;;;;;;2.4;100.0;102240;;;;
2023/01/31 00:56:02;;;;;;;2.9;2.8;;;;;;;2.4;100.0;102240;;;;
2023/01/31 00:57:00;;;;;;;2.9;2.8;;;;;;;2.4;100.0;102230;;;;
2023/01/31 00:58:00;;;;;;;2.9;2.8;;;;;;;2.4;100.0;102230;;;;
2023/01/31 00:59:03;;;;;;;2.9;2.8;;;;;;;2.4;100.0;102240;;;;
2023/01/31 01:00:00;;;;;;;2.9;2.8;;;;;;;2.4;100.0;102240;;;;
2023/01/31 01:01:10;;;;;;;3.0;2.9;;;;;;;2.5;100.0;102240;;;;
2023/01/31 01:02:00;;;;;;;3.0;2.9;;;;;;;2.5;100.0;102240;;;;
2023/01/31 01:03:00;;;;;;;3.0;2.9;;;;;;;2.3;100.0;102240;;;;
2023/01/31 01:04:01;;;;;;;3.0;2.9;;;;;;;2.3;100.0;102240;;;;
2023/01/31 01:05:00;;;;;;;3.0;2.9;;;;;;;2.3;100.0;102240;;;;
2023/01/31 01:06:00;;;;;;;3.0;2.9;;;;;;;2.3;100.0;102240;;;;
2023/01/31 01:07:00;;;;;;;3.0;2.9;;;;;;;2.3;100.0;102230;;;;
2023/01/31 01:08:00;;;;;;;3.0;2.9;;;;;;;2.3;100.0;102230;;;;
2023/01/31 01:09:00;;;;;;;3.0;2.9;;;;;;;2.3;100.0;102230;;;;
2023/01/31 01:10:00;;;;;;;3.0;2.9;;;;;;;2.3;100.0;102230;;;;
2023/01/31 01:11:10;;;;;;;3.0;2.9;;;;;;;2.3;100.0;102230;;;;
2023/01/31 01:12:00;;;;;;;3.0;2.9;;;;;;;2.3;100.0;102230;;;;
2023/01/31 01:13:01;;;;;;;3.0;2.9;;;;;;;2.3;100.0;102230;;;;
2023/01/31 01:14:00;;;;;;;3.0;2.9;;;;;;;2.3;100.0;102230;;;;
2023/01/31 01:15:00;;;;;;;3.0;2.9;;;;;;;2.4;100.0;102220;;;;
2023/01/31 01:16:03;;;;;;;3.0;2.9;;;;;;;2.4;100.0;102220;;;;
2023/01/31 01:17:00;;;;;;;3.0;2.9;;;;;;;2.4;100.0;102220;;;;
2023/01/31 01:18:00;;;;;;;3.0;2.9;;;;;;;2.4;100.0;102220;;;;
2023/01/31 01:19:02;;;;;;;3.0;2.9;;;;;;;2.5;100.0;102210;;;;
2023/01/31 01:20:02;;;;;;;3.0;2.9;;;;;;;2.5;100.0;102210;;;;
2023/01/31 01:21:09;;;;;;;2.5;2.5;;;;;;;2.5;100.0;102210;;;;
2023/01/31 01:22:00;;;;;;;2.5;2.5;;;;;;;2.5;100.0;102210;;;;
2023/01/31 01:23:01;;;;;;;2.5;2.5;;;;;;;2.4;100.0;102210;;;;
2023/01/31 01:24:01;;;;;;;2.5;2.5;;;;;;;2.4;100.0;102210;;;;
2023/01/31 01:25:01;;;;;;;2.5;2.5;;;;;;;2.5;100.0;102210;;;;
2023/01/31 01:26:00;;;;;;;2.5;2.5;;;;;;;2.5;100.0;102210;;;;
2023/01/31 01:27:00;;;;;;;2.5;2.5;;;;;;;2.6;100.0;102210;;;;
2023/01/31 01:28:00;;;;;;;2.5;2.5;;;;;;;2.6;100.0;102210;;;;
2023/01/31 01:29:01;;;;;;;2.5;2.5;;;;;;;2.6;100.0;102210;;;;
2023/01/31 01:30:00;;;;;;;2.5;2.5;;;;;;;2.6;100.0;102210;;;;
2023/01/31 01:31:08;;;;;;;2.5;2.5;;;;;;;2.6;100.0;102200;;;;
2023/01/31 01:32:01;;;;;;;2.5;2.5;;;;;;;2.6;100.0;102200;;;;
2023/01/31 01:33:00;;;;;;;2.5;2.5;;;;;;;2.6;100.0;102200;;;;
2023/01/31 01:34:02;;;;;;;2.5;2.5;;;;;;;2.6;100.0;102200;;;;
2023/01/31 01:35:00;;;;;;;2.5;2.5;;;;;;;2.5;100.0;102200;;;;
2023/01/31 01:36:02;;;;;;;2.5;2.5;;;;;;;2.5;100.0;102200;;;;
2023/01/31 01:37:08;;;;;;;2.5;2.5;;;;;;;2.6;100.0;102200;;;;
2023/01/31 01:38:00;;;;;;;2.5;2.5;;;;;;;2.6;100.0;102200;;;;
2023/01/31 01:39:00;;;;;;;2.5;2.5;;;;;;;2.6;100.0;102200;;;;
2023/01/31 01:40:00;;;;;;;2.5;2.5;;;;;;;2.6;100.0;102200;;;;
2023/01/31 01:41:01;;;;;;;3.2;3.1;;;;;;;2.6;100.0;102210;;;;
2023/01/31 01:42:00;;;;;;;3.2;3.1;;;;;;;2.6;100.0;102210;;;;
2023/01/31 01:43:00;;;;;;;3.2;3.1;;;;;;;2.6;100.0;102200;;;;
2023/01/31 01:44:02;;;;;;;3.2;3.1;;;;;;;2.6;100.0;102200;;;;
2023/01/31 01:45:02;;;;;;;3.2;3.1;;;;;;;2.5;100.0;102200;;;;
2023/01/31 01:46:01;;;;;;;3.2;3.1;;;;;;;2.5;100.0;102200;;;;
2023/01/31 01:47:01;;;;;;;3.2;3.1;;;;;;;2.7;100.0;102200;;;;
2023/01/31 01:48:04;;;;;;;3.2;3.1;;;;;;;2.7;100.0;102200;;;;
2023/01/31 01:49:01;;;;;;;3.2;3.1;;;;;;;2.6;100.0;102200;;;;
2023/01/31 01:50:04;;;;;;;3.2;3.1;;;;;;;2.6;100.0;102200;;;;
2023/01/31 01:51:02;;;;;;;3.2;3.1;;;;;;;2.5;100.0;102200;;;;
2023/01/31 01:52:02;;;;;;;3.2;3.1;;;;;;;2.5;100.0;102200;;;;
2023/01/31 01:53:04;;;;;;;3.2;3.1;;;;;;;2.6;100.0;102200;;;;
2023/01/31 01:54:03;;;;;;;3.2;3.1;;;;;;;2.6;100.0;102200;;;;
2023/01/31 01:55:09;;;;;;;3.2;3.1;;;;;;;2.5;100.0;102200;;;;
2023/01/31 01:56:02;;;;;;;3.2;3.1;;;;;;;2.5;100.0;102200;;;;
2023/01/31 01:57:02;;;;;;;3.2;3.1;;;;;;;2.5;100.0;102200;;;;
2023/01/31 01:58:05;;;;;;;3.2;3.1;;;;;;;2.5;100.0;102200;;;;
2023/01/31 01:59:03;;;;;;;3.2;3.1;;;;;;;2.5;100.0;102200;;;;
2023/01/31 02:00:10;;;;;;;2.8;2.7;;;;;;;2.5;100.0;102200;;;;
2023/01/31 02:01:02;;;;;;;2.8;2.7;;;;;;;2.5;100.0;102190;;;;
2023/01/31 02:02:01;;;;;;;2.8;2.7;;;;;;;2.5;100.0;102190;;;;
2023/01/31 02:03:02;;;;;;;2.8;2.7;;;;;;;2.5;100.0;102190;;;;
2023/01/31 02:04:02;;;;;;;2.8;2.7;;;;;;;2.5;100.0;102190;;;;
2023/01/31 02:05:01;;;;;;;2.8;2.7;;;;;;;2.5;100.0;102190;;;;
2023/01/31 02:06:03;;;;;;;2.8;2.7;;;;;;;2.5;100.0;102190;;;;
2023/01/31 02:07:01;;;;;;;2.8;2.7;;;;;;;2.5;100.0;102190;;;;
2023/01/31 02:08:01;;;;;;;2.8;2.7;;;;;;;2.5;100.0;102190;;;;
2023/01/31 02:09:02;;;;;;;2.8;2.7;;;;;;;2.4;100.0;102190;;;;
2023/01/31 02:10:04;;;;;;;2.8;2.7;;;;;;;2.4;100.0;102190;;;;
2023/01/31 02:11:08;;;;;;;2.8;2.7;;;;;;;2.4;100.0;102200;;;;
2023/01/31 02:12:00;;;;;;;2.8;2.7;;;;;;;2.4;100.0;102200;;;;
2023/01/31 02:13:01;;;;;;;2.8;2.7;;;;;;;2.5;100.0;102200;;;;
2023/01/31 02:14:09;;;;;;;2.8;2.7;;;;;;;2.5;100.0;102200;;;;
2023/01/31 02:15:01;;;;;;;2.8;2.7;;;;;;;2.4;100.0;102200;;;;
2023/01/31 02:16:00;;;;;;;2.8;2.7;;;;;;;2.4;100.0;102200;;;;
2023/01/31 02:17:00;;;;;;;2.8;2.7;;;;;;;2.4;100.0;102210;;;;
2023/01/31 02:18:00;;;;;;;2.8;2.7;;;;;;;2.4;100.0;102210;;;;
2023/01/31 02:19:01;;;;;;;2.8;2.7;;;;;;;2.4;100.0;102210;;;;
2023/01/31 02:20:10;;;;;;;2.5;2.5;;;;;;;2.4;100.0;102210;;;;
2023/01/31 02:21:10;;;;;;;2.5;2.5;;;;;;;2.5;100.0;102210;;;;
2023/01/31 02:22:09;;;;;;;2.5;2.5;;;;;;;2.5;100.0;102210;;;;
2023/01/31 02:23:10;;;;;;;2.5;2.5;;;;;;;2.5;100.0;102210;;;;
2023/01/31 02:24:10;;;;;;;2.5;2.5;;;;;;;2.5;100.0;102210;;;;
2023/01/31 02:25:03;;;;;;;2.5;2.5;;;;;;;2.6;100.0;102210;;;;
2023/01/31 02:26:09;;;;;;;2.5;2.5;;;;;;;2.6;100.0;102210;;;;
2023/01/31 02:27:01;;;;;;;2.5;2.5;;;;;;;2.6;100.0;102220;;;;
2023/01/31 02:28:09;;;;;;;2.5;2.5;;;;;;;2.6;100.0;102220;;;;
2023/01/31 02:29:10;;;;;;;2.5;2.5;;;;;;;2.7;100.0;102220;;;;
2023/01/31 02:30:01;;;;;;;2.5;2.5;;;;;;;2.7;100.0;102220;;;;
2023/01/31 02:31:00;;;;;;;2.5;2.5;;;;;;;2.7;100.0;102220;;;;
2023/01/31 02:32:11;;;;;;;2.5;2.5;;;;;;;2.7;100.0;102220;;;;
2023/01/31 02:33:05;;;;;;;2.5;2.5;;;;;;;2.7;100.0;102220;;;;
2023/01/31 02:34:10;;;;;;;2.5;2.5;;;;;;;2.7;100.0;102220;;;;
2023/01/31 02:35:08;;;;;;;2.5;2.5;;;;;;;2.6;100.0;102220;;;;
2023/01/31 02:36:07;;;;;;;2.5;2.5;;;;;;;2.6;100.0;102220;;;;
2023/01/31 02:37:10;;;;;;;2.5;2.5;;;;;;;2.6;100.0;102220;;;;
2023/01/31 02:38:10;;;;;;;2.5;2.5;;;;;;;2.6;100.0;102220;;;;
2023/01/31 02:39:10;;;;;;;2.5;2.5;;;;;;;2.6;100.0;102220;;;;
2023/01/31 02:40:10;;;;;;;2.5;2.5;;;;;;;2.6;100.0;102220;;;;
2023/01/31 02:41:09;;;;;;;2.5;2.5;;;;;;;2.6;100.0;102220;;;;
2023/01/31 02:42:05;;;;;;;2.5;2.5;;;;;;;2.6;100.0;102220;;;;
2023/01/31 02:43:11;;;;;;;2.5;2.5;;;;;;;2.6;100.0;102220;;;;
2023/01/31 02:45:10;;;;;;;2.5;2.5;;;;;;;2.7;100.0;102210;;;;
2023/01/31 02:46:10;;;;;;;2.5;2.5;;;;;;;2.7;100.0;102210;;;;
2023/01/31 02:47:03;;;;;;;2.5;2.5;;;;;;;2.8;100.0;102210;;;;
2023/01/31 02:48:10;;;;;;;2.5;2.5;;;;;;;2.8;100.0;102210;;;;
2023/01/31 02:49:07;;;;;;;2.5;2.5;;;;;;;2.8;100.0;102200;;;;
2023/01/31 02:50:07;;;;;;;2.5;2.5;;;;;;;2.8;100.0;102200;;;;
2023/01/31 02:51:07;;;;;;;2.5;2.5;;;;;;;2.9;100.0;102200;;;;
2023/01/31 02:53:05;;;;;;;2.5;2.5;;;;;;;2.8;100.0;102200;;;;
2023/01/31 02:54:10;;;;;;;2.5;2.5;;;;;;;2.8;100.0;102200;;;;
2023/01/31 02:57:01;;;;;;;2.5;2.5;;;;;;;3.0;100.0;102190;;;;
2023/01/31 02:58:02;;;;;;;2.5;2.5;;;;;;;3.0;100.0;102190;;;;
2023/01/31 02:59:00;;;;;;;2.5;2.5;;;;;;;2.9;100.0;102200;;;;
2023/01/31 03:00:00;;;;;;;3.2;3.1;;;;;;;2.9;100.0;102200;;;;
2023/01/31 03:01:02;;;;;;;3.2;3.1;;;;;;;3.0;100.0;102190;;;;
2023/01/31 03:02:01;;;;;;;3.2;3.1;;;;;;;3.0;100.0;102190;;;;
2023/01/31 03:03:03;;;;;;;3.2;3.1;;;;;;;2.8;100.0;102190;;;;
2023/01/31 03:04:02;;;;;;;3.2;3.1;;;;;;;2.8;100.0;102190;;;;
2023/01/31 03:05:01;;;;;;;3.2;3.1;;;;;;;2.9;100.0;102200;;;;
2023/01/31 03:06:10;;;;;;;3.2;3.1;;;;;;;2.9;100.0;102200;;;;
2023/01/31 03:07:10;;;;;;;3.2;3.1;;;;;;;3.0;100.0;102200;;;;
2023/01/31 03:08:03;;;;;;;3.2;3.1;;;;;;;3.0;100.0;102200;;;;
2023/01/31 03:09:05;;;;;;;3.2;3.1;;;;;;;3.0;100.0;102190;;;;
2023/01/31 03:10:00;;;;;;;3.2;3.1;;;;;;;3.0;100.0;102190;;;;
2023/01/31 03:11:03;;;;;;;3.2;3.1;;;;;;;3.0;100.0;102190;;;;
2023/01/31 03:12:01;;;;;;;3.2;3.1;;;;;;;3.0;100.0;102190;;;;
2023/01/31 03:13:10;;;;;;;3.2;3.1;;;;;;;3.1;100.0;102190;;;;
2023/01/31 03:14:01;;;;;;;3.2;3.1;;;;;;;3.1;100.0;102190;;;;
2023/01/31 03:15:12;;;;;;;3.2;3.1;;;;;;;3.1;100.0;102190;;;;
2023/01/31 03:18:04;;;;;;;3.2;3.1;;;;;;;3.0;100.0;102180;;;;
2023/01/31 03:19:12;;;;;;;3.2;3.1;;;;;;;3.1;100.0;102180;;;;
2023/01/31 03:20:07;;;;;;;2.8;2.7;;;;;;;3.1;100.0;102180;;;;
2023/01/31 03:21:05;;;;;;;2.8;2.7;;;;;;;3.0;100.0;102180;;;;
2023/01/31 03:22:05;;;;;;;2.8;2.7;;;;;;;3.0;100.0;102180;;;;
2023/01/31 03:23:02;;;;;;;2.8;2.7;;;;;;;3.1;100.0;102190;;;;
2023/01/31 03:24:01;;;;;;;2.8;2.7;;;;;;;3.1;100.0;102190;;;;
2023/01/31 03:25:04;;;;;;;2.8;2.7;;;;;;;3.1;100.0;102180;;;;
2023/01/31 03:26:02;;;;;;;2.8;2.7;;;;;;;3.1;100.0;102180;;;;
2023/01/31 03:27:02;;;;;;;2.8;2.7;;;;;;;3.1;100.0;102180;;;;
2023/01/31 03:28:02;;;;;;;2.8;2.7;;;;;;;3.1;100.0;102180;;;;
2023/01/31 03:29:02;;;;;;;2.8;2.7;;;;;;;3.1;100.0;102180;;;;
2023/01/31 03:30:04;;;;;;;2.8;2.7;;;;;;;3.1;100.0;102180;;;;
2023/01/31 03:31:04;;;;;;;2.8;2.7;;;;;;;3.1;100.0;102180;;;;
2023/01/31 03:32:10;;;;;;;2.8;2.7;;;;;;;3.1;100.0;102180;;;;
2023/01/31 03:33:05;;;;;;;2.8;2.7;;;;;;;3.1;100.0;102180;;;;
2023/01/31 03:34:04;;;;;;;2.8;2.7;;;;;;;3.1;100.0;102180;;;;
2023/01/31 03:35:00;;;;;;;2.8;2.7;;;;;;;3.1;100.0;102180;;;;
2023/01/31 03:36:07;;;;;;;2.8;2.7;;;;;;;3.1;100.0;102180;;;;
2023/01/31 03:37:10;;;;;;;2.8;2.7;;;;;;;3.2;100.0;102170;;;;
2023/01/31 03:38:07;;;;;;;2.8;2.7;;;;;;;3.2;100.0;102170;;;;
2023/01/31 03:39:00;;;;;;;2.8;2.7;;;;;;;3.2;100.0;102160;;;;
2023/01/31 03:40:01;;;;;;;2.8;2.7;;;;;;;3.2;100.0;102160;;;;
2023/01/31 03:41:05;;;;;;;2.8;2.7;;;;;;;3.2;100.0;102160;;;;
2023/01/31 03:42:08;;;;;;;2.8;2.7;;;;;;;3.2;100.0;102160;;;;
2023/01/31 03:43:07;;;;;;;2.8;2.7;;;;;;;3.2;100.0;102160;;;;
2023/01/31 03:44:04;;;;;;;2.8;2.7;;;;;;;3.2;100.0;102160;;;;
2023/01/31 03:45:05;;;;;;;2.8;2.7;;;;;;;3.2;100.0;102160;;;;
2023/01/31 03:46:05;;;;;;;2.8;2.7;;;;;;;3.2;100.0;102160;;;;
2023/01/31 03:47:04;;;;;;;2.8;2.7;;;;;;;3.2;100.0;102160;;;;
2023/01/31 03:48:02;;;;;;;2.8;2.7;;;;;;;3.2;100.0;102160;;;;
2023/01/31 03:49:03;;;;;;;2.8;2.7;;;;;;;3.2;100.0;102160;;;;
2023/01/31 03:50:05;;;;;;;2.8;2.7;;;;;;;3.2;100.0;102160;;;;
2023/01/31 03:51:03;;;;;;;2.8;2.7;;;;;;;3.2;100.0;102150;;;;
2023/01/31 03:52:04;;;;;;;2.8;2.7;;;;;;;3.2;100.0;102150;;;;
2023/01/31 03:53:06;;;;;;;2.8;2.7;;;;;;;3.2;100.0;102150;;;;
2023/01/31 03:54:03;;;;;;;2.8;2.7;;;;;;;3.2;100.0;102150;;;;
2023/01/31 03:55:08;;;;;;;2.8;2.7;;;;;;;3.2;100.0;102150;;;;
2023/01/31 03:56:03;;;;;;;2.8;2.7;;;;;;;3.2;100.0;102150;;;;
2023/01/31 03:57:03;;;;;;;2.8;2.7;;;;;;;3.2;100.0;102140;;;;
2023/01/31 03:58:02;;;;;;;2.8;2.7;;;;;;;3.2;100.0;102140;;;;
2023/01/31 03:59:06;;;;;;;2.8;2.7;;;;;;;3.2;100.0;102140;;;;
2023/01/31 04:00:03;;;;;;;2.4;2.4;;;;;;;3.2;100.0;102140;;;;
2023/01/31 04:01:02;;;;;;;2.4;2.4;;;;;;;3.3;100.0;102140;;;;
2023/01/31 04:02:03;;;;;;;2.4;2.4;;;;;;;3.3;100.0;102140;;;;
2023/01/31 04:03:06;;;;;;;2.4;2.4;;;;;;;3.3;100.0;102150;;;;
2023/01/31 04:04:04;;;;;;;2.4;2.4;;;;;;;3.3;100.0;102150;;;;
2023/01/31 04:05:07;;;;;;;2.4;2.4;;;;;;;3.3;100.0;102140;;;;
2023/01/31 04:06:00;;;;;;;2.4;2.4;;;;;;;3.3;100.0;102140;;;;
2023/01/31 04:07:00;;;;;;;2.4;2.4;;;;;;;3.3;100.0;102140;;;;
2023/01/31 04:08:00;;;;;;;2.4;2.4;;;;;;;3.3;100.0;102140;;;;
2023/01/31 04:09:00;;;;;;;2.4;2.4;;;;;;;3.3;100.0;102140;;;;
2023/01/31 04:10:00;;;;;;;2.4;2.4;;;;;;;3.3;100.0;102140;;;;
2023/01/31 04:11:03;;;;;;;2.4;2.4;;;;;;;3.3;100.0;102140;;;;
2023/01/31 04:12:02;;;;;;;2.4;2.4;;;;;;;3.3;100.0;102140;;;;
2023/01/31 04:13:01;;;;;;;2.4;2.4;;;;;;;3.4;100.0;102140;;;;
2023/01/31 04:14:00;;;;;;;2.4;2.4;;;;;;;3.4;100.0;102140;;;;
2023/01/31 04:15:00;;;;;;;2.4;2.4;;;;;;;3.4;100.0;102140;;;;
2023/01/31 04:16:01;;;;;;;2.4;2.4;;;;;;;3.4;100.0;102140;;;;
2023/01/31 04:17:00;;;;;;;2.4;2.4;;;;;;;3.5;100.0;102140;;;;
2023/01/31 04:18:00;;;;;;;2.4;2.4;;;;;;;3.5;100.0;102140;;;;
2023/01/31 04:19:00;;;;;;;2.4;2.4;;;;;;;3.5;100.0;102140;;;;
2023/01/31 04:20:00;;;;;;;2.7;2.6;;;;;;;3.5;100.0;102140;;;;
2023/01/31 04:21:00;;;;;;;2.7;2.6;;;;;;;3.4;100.0;102140;;;;
2023/01/31 04:22:00;;;;;;;2.7;2.6;;;;;;;3.4;100.0;102140;;;;
2023/01/31 04:23:02;;;;;;;2.7;2.6;;;;;;;3.4;100.0;102140;;;;
2023/01/31 04:24:00;;;;;;;2.7;2.6;;;;;;;3.4;100.0;102140;;;;
2023/01/31 04:25:00;;;;;;;2.7;2.6;;;;;;;3.3;100.0;102140;;;;
2023/01/31 04:26:00;;;;;;;2.7;2.6;;;;;;;3.3;100.0;102140;;;;
2023/01/31 04:27:00;;;;;;;2.7;2.6;;;;;;;3.4;100.0;102140;;;;
2023/01/31 04:28:00;;;;;;;2.7;2.6;;;;;;;3.4;100.0;102140;;;;
2023/01/31 04:29:00;;;;;;;2.7;2.6;;;;;;;3.4;100.0;102140;;;;
2023/01/31 04:30:00;;;;;;;2.7;2.6;;;;;;;3.4;100.0;102140;;;;
2023/01/31 04:31:00;;;;;;;2.7;2.6;;;;;;;3.3;100.0;102130;;;;
2023/01/31 04:32:00;;;;;;;2.7;2.6;;;;;;;3.3;100.0;102130;;;;
2023/01/31 04:33:00;;;;;;;2.7;2.6;;;;;;;3.3;100.0;102130;;;;
2023/01/31 04:34:00;;;;;;;2.7;2.6;;;;;;;3.3;100.0;102130;;;;
2023/01/31 04:35:02;;;;;;;2.7;2.6;;;;;;;3.3;100.0;102130;;;;
2023/01/31 04:36:00;;;;;;;2.7;2.6;;;;;;;3.3;100.0;102130;;;;
2023/01/31 04:37:00;;;;;;;2.7;2.6;;;;;;;3.4;100.0;102130;;;;
2023/01/31 04:38:00;;;;;;;2.7;2.6;;;;;;;3.4;100.0;102130;;;;
2023/01/31 04:39:00;;;;;;;2.7;2.6;;;;;;;3.3;100.0;102130;;;;
2023/01/31 04:40:00;;;;;;;2.4;2.4;;;;;;;3.3;100.0;102130;;;;
2023/01/31 04:41:00;;;;;;;2.4;2.4;;;;;;;3.2;100.0;102140;;;;
2023/01/31 04:42:00;;;;;;;2.4;2.4;;;;;;;3.2;100.0;102140;;;;
2023/01/31 04:43:00;;;;;;;2.4;2.4;;;;;;;3.3;100.0;102130;;;;
2023/01/31 04:44:00;;;;;;;2.4;2.4;;;;;;;3.3;100.0;102130;;;;
2023/01/31 04:45:00;;;;;;;2.4;2.4;;;;;;;3.2;100.0;102130;;;;
2023/01/31 04:46:00;;;;;;;2.4;2.4;;;;;;;3.2;100.0;102130;;;;
2023/01/31 04:47:00;;;;;;;2.4;2.4;;;;;;;3.2;100.0;102120;;;;
2023/01/31 04:48:00;;;;;;;2.4;2.4;;;;;;;3.2;100.0;102120;;;;
2023/01/31 04:49:00;;;;;;;2.4;2.4;;;;;;;3.2;100.0;102130;;;;
2023/01/31 04:50:00;;;;;;;2.4;2.4;;;;;;;3.2;100.0;102130;;;;
2023/01/31 04:51:00;;;;;;;2.4;2.4;;;;;;;3.2;100.0;102120;;;;
2023/01/31 04:52:00;;;;;;;2.4;2.4;;;;;;;3.2;100.0;102120;;;;
2023/01/31 04:53:00;;;;;;;2.4;2.4;;;;;;;3.1;100.0;102120;;;;
2023/01/31 04:54:00;;;;;;;2.4;2.4;;;;;;;3.1;100.0;102120;;;;
2023/01/31 04:55:00;;;;;;;2.4;2.4;;;;;;;3.1;100.0;102110;;;;
2023/01/31 04:56:01;;;;;;;2.4;2.4;;;;;;;3.1;100.0;102110;;;;
2023/01/31 04:57:00;;;;;;;2.4;2.4;;;;;;;3.1;100.0;102110;;;;
2023/01/31 04:58:01;;;;;;;2.4;2.4;;;;;;;3.1;100.0;102110;;;;
2023/01/31 04:59:01;;;;;;;2.4;2.4;;;;;;;3.1;100.0;102110;;;;
2023/01/31 05:00:00;;;;;;;2.4;2.4;;;;;;;3.1;100.0;102110;;;;
2023/01/31 05:01:00;;;;;;;2.4;2.4;;;;;;;3.1;100.0;102100;;;;
2023/01/31 05:02:00;;;;;;;2.4;2.4;;;;;;;3.1;100.0;102100;;;;
2023/01/31 05:03:00;;;;;;;2.4;2.4;;;;;;;3.1;100.0;102100;;;;
2023/01/31 05:04:00;;;;;;;2.4;2.4;;;;;;;3.1;100.0;102100;;;;
2023/01/31 05:05:01;;;;;;;2.4;2.4;;;;;;;3.0;100.0;102100;;;;
2023/01/31 05:06:00;;;;;;;2.4;2.4;;;;;;;3.0;100.0;102100;;;;
2023/01/31 05:07:00;;;;;;;2.4;2.4;;;;;;;3.0;100.0;102100;;;;
2023/01/31 05:08:00;;;;;;;2.4;2.4;;;;;;;3.0;100.0;102100;;;;
2023/01/31 05:09:00;;;;;;;2.4;2.4;;;;;;;3.0;100.0;102100;;;;
2023/01/31 05:10:00;;;;;;;2.4;2.4;;;;;;;3.0;100.0;102100;;;;
2023/01/31 05:11:05;;;;;;;2.4;2.4;;;;;;;3.0;100.0;102100;;;;
2023/01/31 05:12:00;;;;;;;2.4;2.4;;;;;;;3.0;100.0;102100;;;;
2023/01/31 05:13:00;;;;;;;2.4;2.4;;;;;;;2.9;100.0;102100;;;;
2023/01/31 05:14:00;;;;;;;2.4;2.4;;;;;;;2.9;100.0;102100;;;;
2023/01/31 05:15:00;;;;;;;2.4;2.4;;;;;;;2.9;100.0;102100;;;;
2023/01/31 05:16:00;;;;;;;2.4;2.4;;;;;;;2.9;100.0;102100;;;;
2023/01/31 05:17:01;;;;;;;2.4;2.4;;;;;;;3.0;100.0;102100;;;;
2023/01/31 05:18:02;;;;;;;2.4;2.4;;;;;;;3.0;100.0;102100;;;;
2023/01/31 05:19:00;;;;;;;2.4;2.4;;;;;;;3.0;100.0;102090;;;;
2023/01/31 05:20:00;;;;;;;2.7;2.6;;;;;;;3.0;100.0;102090;;;;
2023/01/31 05:21:01;;;;;;;2.7;2.6;;;;;;;3.0;100.0;102100;;;;
2023/01/31 05:22:00;;;;;;;2.7;2.6;;;;;;;3.0;100.0;102100;;;;
2023/01/31 05:23:01;;;;;;;2.7;2.6;;;;;;;3.0;100.0;102090;;;;
2023/01/31 05:24:00;;;;;;;2.7;2.6;;;;;;;3.0;100.0;102090;;;;
2023/01/31 05:25:00;;;;;;;2.7;2.6;;;;;;;3.0;100.0;102100;;;;
2023/01/31 05:26:00;;;;;;;2.7;2.6;;;;;;;3.0;100.0;102100;;;;
2023/01/31 05:27:01;;;;;;;2.7;2.6;;;;;;;3.0;100.0;102090;;;;
2023/01/31 05:28:00;;;;;;;2.7;2.6;;;;;;;3.0;100.0;102090;;;;
2023/01/31 05:29:02;;;;;;;2.7;2.6;;;;;;;3.0;100.0;102090;;;;
2023/01/31 05:30:00;;;;;;;2.7;2.6;;;;;;;3.0;100.0;102090;;;;
2023/01/31 05:31:02;;;;;;;2.7;2.6;;;;;;;3.1;100.0;102090;;;;
2023/01/31 05:32:01;;;;;;;2.7;2.6;;;;;;;3.1;100.0;102090;;;;
2023/01/31 05:33:00;;;;;;;2.7;2.6;;;;;;;3.0;100.0;102090;;;;
2023/01/31 05:34:00;;;;;;;2.7;2.6;;;;;;;3.0;100.0;102090;;;;
2023/01/31 05:35:00;;;;;;;2.7;2.6;;;;;;;3.1;100.0;102090;;;;
2023/01/31 05:36:00;;;;;;;2.7;2.6;;;;;;;3.1;100.0;102090;;;;
2023/01/31 05:37:01;;;;;;;2.7;2.6;;;;;;;3.1;100.0;102090;;;;
2023/01/31 05:38:00;;;;;;;2.7;2.6;;;;;;;3.1;100.0;102090;;;;
2023/01/31 05:39:00;;;;;;;2.7;2.6;;;;;;;3.1;100.0;102080;;;;
2023/01/31 05:40:00;;;;;;;2.4;2.4;;;;;;;3.1;100.0;102080;;;;
2023/01/31 05:41:00;;;;;;;2.4;2.4;;;;;;;3.1;100.0;102080;;;;
2023/01/31 05:42:00;;;;;;;2.4;2.4;;;;;;;3.1;100.0;102080;;;;
2023/01/31 05:43:00;;;;;;;2.4;2.4;;;;;;;3.0;100.0;102080;;;;
2023/01/31 05:44:01;;;;;;;2.4;2.4;;;;;;;3.0;100.0;102080;;;;
2023/01/31 05:45:00;;;;;;;2.4;2.4;;;;;;;3.1;100.0;102070;;;;
2023/01/31 05:46:00;;;;;;;2.4;2.4;;;;;;;3.1;100.0;102070;;;;
2023/01/31 05:47:01;;;;;;;2.4;2.4;;;;;;;3.1;100.0;102060;;;;
2023/01/31 05:48:01;;;;;;;2.4;2.4;;;;;;;3.1;100.0;102060;;;;
2023/01/31 05:49:01;;;;;;;2.4;2.4;;;;;;;3.1;100.0;102060;;;;
2023/01/31 05:50:01;;;;;;;2.4;2.4;;;;;;;3.1;100.0;102060;;;;
2023/01/31 05:51:00;;;;;;;2.4;2.4;;;;;;;3.2;100.0;102070;;;;
2023/01/31 05:52:01;;;;;;;2.4;2.4;;;;;;;3.2;100.0;102070;;;;
2023/01/31 05:53:02;;;;;;;2.4;2.4;;;;;;;3.2;100.0;102060;;;;
2023/01/31 05:54:00;;;;;;;2.4;2.4;;;;;;;3.2;100.0;102060;;;;
2023/01/31 05:55:00;;;;;;;2.4;2.4;;;;;;;3.2;100.0;102060;;;;
2023/01/31 05:56:00;;;;;;;2.4;2.4;;;;;;;3.2;100.0;102060;;;;
2023/01/31 05:57:00;;;;;;;2.4;2.4;;;;;;;3.2;100.0;102060;;;;
2023/01/31 05:58:01;;;;;;;2.4;2.4;;;;;;;3.2;100.0;102060;;;;
2023/01/31 05:59:02;;;;;;;2.4;2.4;;;;;;;3.2;100.0;102060;;;;
2023/01/31 06:00:01;;;;;;;3.5;3.4;;;;;;;3.2;100.0;102060;;;;
2023/01/31 06:01:01;;;;;;;3.5;3.4;;;;;;;3.2;100.0;102060;;;;
2023/01/31 06:02:01;;;;;;;3.5;3.4;;;;;;;3.2;100.0;102060;;;;
2023/01/31 06:03:01;;;;;;;3.5;3.4;;;;;;;3.2;100.0;102060;;;;
2023/01/31 06:04:01;;;;;;;3.5;3.4;;;;;;;3.2;100.0;102060;;;;
2023/01/31 06:05:00;;;;;;;3.5;3.4;;;;;;;3.2;100.0;102060;;;;
2023/01/31 06:06:00;;;;;;;3.5;3.4;;;;;;;3.2;100.0;102060;;;;
2023/01/31 06:07:00;;;;;;;3.5;3.4;;;;;;;3.2;100.0;102060;;;;
2023/01/31 06:08:00;;;;;;;3.5;3.4;;;;;;;3.2;100.0;102060;;;;
2023/01/31 06:09:01;;;;;;;3.5;3.4;;;;;;;3.3;100.0;102060;;;;
2023/01/31 06:10:01;;;;;;;3.5;3.4;;;;;;;3.3;100.0;102060;;;;
2023/01/31 06:11:01;;;;;;;3.5;3.4;;;;;;;3.2;100.0;102070;;;;
2023/01/31 06:12:01;;;;;;;3.5;3.4;;;;;;;3.2;100.0;102070;;;;
2023/01/31 06:13:00;;;;;;;3.5;3.4;;;;;;;3.2;100.0;102070;;;;
2023/01/31 06:14:00;;;;;;;3.5;3.4;;;;;;;3.2;100.0;102070;;;;
2023/01/31 06:15:00;;;;;;;3.5;3.4;;;;;;;3.3;100.0;102070;;;;
2023/01/31 06:16:00;;;;;;;3.5;3.4;;;;;;;3.3;100.0;102070;;;;
2023/01/31 06:17:00;;;;;;;3.5;3.4;;;;;;;3.3;100.0;102060;;;;
2023/01/31 06:18:01;;;;;;;3.5;3.4;;;;;;;3.3;100.0;102060;;;;
2023/01/31 06:19:00;;;;;;;3.5;3.4;;;;;;;3.3;100.0;102070;;;;
2023/01/31 06:20:00;;;;;;;2.7;2.6;;;;;;;3.3;100.0;102070;;;;
2023/01/31 06:21:00;;;;;;;2.7;2.6;;;;;;;3.4;100.0;102060;;;;
2023/01/31 06:22:00;;;;;;;2.7;2.6;;;;;;;3.4;100.0;102060;;;;
2023/01/31 06:23:00;;;;;;;2.7;2.6;;;;;;;3.4;100.0;102070;;;;
2023/01/31 06:24:00;;;;;;;2.7;2.6;;;;;;;3.4;100.0;102070;;;;
2023/01/31 06:25:00;;;;;;;2.7;2.6;;;;;;;3.4;100.0;102060;;;;
2023/01/31 06:26:00;;;;;;;2.7;2.6;;;;;;;3.4;100.0;102060;;;;
2023/01/31 06:27:00;;;;;;;2.7;2.6;;;;;;;3.4;100.0;102060;;;;
2023/01/31 06:28:00;;;;;;;2.7;2.6;;;;;;;3.4;100.0;102060;;;;
2023/01/31 06:29:00;;;;;;;2.7;2.6;;;;;;;3.3;100.0;102070;;;;
2023/01/31 06:30:00;;;;;;;2.7;2.6;;;;;;;3.3;100.0;102070;;;;
2023/01/31 06:31:05;;;;;;;2.7;2.6;;;;;;;3.3;100.0;102070;;;;
2023/01/31 06:32:00;;;;;;;2.7;2.6;;;;;;;3.3;100.0;102070;;;;
2023/01/31 06:33:01;;;;;;;2.7;2.6;;;;;;;3.4;100.0;102050;;;;
2023/01/31 06:34:00;;;;;;;2.7;2.6;;;;;;;3.4;100.0;102050;;;;
2023/01/31 06:35:00;;;;;;;2.7;2.6;;;;;;;3.4;100.0;102060;;;;